Time;durP1;ratioP1;P1;durP2;ratioP2;P2;SDS_P1;SDS_P2;PMS_P1;PMS_P2;Temp;Humidity;BMP_temperature;BMP_pressure;BME280_temperature;BME280_humidity;BME280_pressure;Samples;Min_cycle;Max_cycle;Signal;HPM_P1;HPM_P2
2021/01/29 00:00:20;;;;;;;20.23;13.78;;;;;;;-1.29;94.99;97630.78;1817783;79;23627;-57
2021/01/29 00:02:47;;;;;;;20.35;14.43;;;;;;;-1.30;95.11;97629.09;1817787;79;21080;-57
2021/01/29 00:05:16;;;;;;;20.15;13.70;;;;;;;-1.30;95.21;97632.08;1817915;79;21052;-57
2021/01/29 00:07:44;;;;;;;18.70;13.08;;;;;;;-1.31;95.35;97627.42;1817778;78;21052;-56
2021/01/29 00:10:12;;;;;;;19.77;13.72;;;;;;;-1.29;95.51;97624.84;1817941;79;21135;-56
2021/01/29 00:12:40;;;;;;;19.65;14.07;;;;;;;-1.29;95.49;97627.39;1817779;79;21367;-56
2021/01/29 00:15:10;;;;;;;20.35;14.38;;;;;;;-1.29;95.63;97624.84;1817920;79;21587;-55
2021/01/29 00:17:39;;;;;;;19.27;13.93;;;;;;;-1.27;95.67;97620.59;1817876;79;21051;-56
2021/01/29 00:20:11;;;;;;;20.57;15.05;;;;;;;-1.24;95.52;97614.16;1817882;79;21528;-56
2021/01/29 00:22:39;;;;;;;20.25;13.95;;;;;;;-1.25;95.54;97617.14;1817829;79;21154;-56
2021/01/29 00:25:09;;;;;;;20.97;14.58;;;;;;;-1.22;95.44;97608.59;1817918;79;21354;-56
2021/01/29 00:27:37;;;;;;;22.25;15.70;;;;;;;-1.24;95.31;97606.51;1817835;78;21536;-57
2021/01/29 00:30:07;;;;;;;19.98;13.90;;;;;;;-1.28;95.32;97615.08;1817771;79;21066;-56
2021/01/29 00:32:35;;;;;;;20.10;14.18;;;;;;;-1.29;95.38;97606.56;1817784;79;21067;-56
2021/01/29 00:35:04;;;;;;;20.32;14.73;;;;;;;-1.30;95.35;97605.31;1817884;79;21118;-56
2021/01/29 00:37:31;;;;;;;24.85;15.20;;;;;;;-1.31;95.41;97613.40;1817793;79;22226;-56
2021/01/29 00:39:59;;;;;;;19.67;14.40;;;;;;;-1.26;95.53;97619.28;1817837;79;21602;-56
2021/01/29 00:42:27;;;;;;;22.67;14.70;;;;;;;-1.22;95.47;97614.97;1817830;79;21127;-56
2021/01/29 00:44:55;;;;;;;21.35;14.25;;;;;;;-1.24;95.29;97615.43;1817287;79;21213;-57
2021/01/29 00:47:23;;;;;;;20.72;14.10;;;;;;;-1.24;95.34;97620.53;1817755;79;21099;-56
2021/01/29 00:49:51;;;;;;;21.10;14.53;;;;;;;-1.22;95.42;97613.69;1817932;79;22054;-56
2021/01/29 00:52:19;;;;;;;20.72;15.18;;;;;;;-1.22;95.36;97608.59;1817792;79;21678;-56
2021/01/29 00:54:47;;;;;;;25.60;15.03;;;;;;;-1.18;95.33;97603.88;1817808;79;21099;-57
2021/01/29 00:57:17;;;;;;;22.75;15.70;;;;;;;-1.19;95.37;97613.67;1817902;79;21469;-57
2021/01/29 00:59:46;;;;;;;23.20;15.48;;;;;;;-1.19;95.29;97597.09;1817714;79;21043;-57
2021/01/29 01:02:16;;;;;;;21.68;15.48;;;;;;;-1.17;95.44;97610.22;1817685;78;21308;-57
2021/01/29 01:04:44;;;;;;;24.07;16.30;;;;;;;-1.17;95.40;97608.94;1817814;79;21066;-57
2021/01/29 01:07:13;;;;;;;23.18;15.98;;;;;;;-1.13;95.51;97604.66;1817867;79;21122;-57
2021/01/29 01:09:44;;;;;;;24.57;16.23;;;;;;;-1.08;95.43;97603.30;1774537;79;21202;-57
2021/01/29 01:12:15;;;;;;;23.10;16.05;;;;;;;-1.07;95.36;97593.06;1814971;79;21155;-57
2021/01/29 01:14:44;;;;;;;26.57;17.82;;;;;;;-1.04;95.33;97598.13;1814843;79;21251;-57
2021/01/29 01:17:23;;;;;;;24.25;16.48;;;;;;;-1.03;95.39;97590.89;1813773;79;21131;-57
2021/01/29 01:19:58;;;;;;;29.30;17.90;;;;;;;-0.99;95.39;97598.88;1814658;79;21122;-57
2021/01/29 01:22:26;;;;;;;24.40;15.65;;;;;;;-0.97;95.33;97601.00;1815077;79;21068;-57
2021/01/29 01:25:13;;;;;;;20.97;15.13;;;;;;;-0.93;95.29;97600.06;1815281;79;21905;-56
2021/01/29 01:27:42;;;;;;;22.77;16.67;;;;;;;-0.93;95.20;97600.06;1812297;79;21345;-58
2021/01/29 01:30:35;;;;;;;24.50;15.58;;;;;;;-0.94;95.02;97595.00;1794822;79;21146;-56
2021/01/29 01:33:06;;;;;;;24.60;16.37;;;;;;;-0.95;94.96;97597.14;1784149;80;21131;-57
2021/01/29 01:35:46;;;;;;;22.75;15.65;;;;;;;-1.00;95.00;97594.66;1784479;80;21087;-56
2021/01/29 01:38:15;;;;;;;29.98;18.40;;;;;;;-1.04;94.98;97590.48;1784531;80;21524;-56
2021/01/29 01:40:49;;;;;;;25.08;16.52;;;;;;;-1.05;95.07;97589.24;1784247;80;21347;-56
2021/01/29 01:43:22;;;;;;;24.50;16.65;;;;;;;-1.05;95.02;97581.16;1784187;80;21087;-56
2021/01/29 01:46:15;;;;;;;26.15;17.40;;;;;;;-1.07;95.00;97583.30;1784414;80;21111;-56
2021/01/29 01:49:11;;;;;;;25.35;16.45;;;;;;;-1.10;94.99;97584.20;1783644;80;21143;-55
2021/01/29 01:52:06;;;;;;;24.25;16.50;;;;;;;-1.16;94.84;97577.48;1784407;80;21151;-56
2021/01/29 01:54:55;;;;;;;29.90;20.23;;;;;;;-1.21;94.84;97591.16;1779943;80;23669;-56
2021/01/29 01:57:23;;;;;;;29.35;18.87;;;;;;;-1.25;94.83;97581.88;1784510;80;21572;-56
2021/01/29 02:00:23;;;;;;;31.25;19.57;;;;;;;-1.32;94.73;97582.41;1759314;80;21103;-55
2021/01/29 02:03:01;;;;;;;27.85;18.73;;;;;;;-1.39;94.76;97591.00;1783828;80;21203;-55
2021/01/29 02:05:49;;;;;;;29.75;18.55;;;;;;;-1.47;94.77;97586.02;1783918;80;21160;-56
2021/01/29 02:08:37;;;;;;;28.80;18.42;;;;;;;-1.55;94.62;97587.83;1784409;79;21743;-56
2021/01/29 02:11:20;;;;;;;38.58;22.87;;;;;;;-1.64;94.77;97587.96;1784373;79;21197;-56
2021/01/29 02:13:50;;;;;;;33.48;20.23;;;;;;;-1.73;94.82;97586.38;1783963;80;21116;-56
2021/01/29 02:16:43;;;;;;;33.13;19.77;;;;;;;-1.79;94.94;97590.71;1784036;79;21496;-55
2021/01/29 02:19:23;;;;;;;28.38;18.65;;;;;;;-1.87;95.00;97587.42;1779707;80;21481;-57
2021/01/29 02:22:34;;;;;;;32.00;19.00;;;;;;;-1.94;95.02;97589.20;1782678;80;21165;-56
2021/01/29 02:25:27;;;;;;;31.10;20.85;;;;;;;-2.01;95.16;97593.52;1749578;80;21143;-56
2021/01/29 02:27:58;;;;;;;33.83;20.02;;;;;;;-2.07;95.38;97589.77;1782919;80;21174;-57
2021/01/29 02:30:37;;;;;;;34.60;20.72;;;;;;;-2.11;95.53;97589.41;1817945;76;21146;-57
2021/01/29 02:33:50;;;;;;;35.13;21.07;;;;;;;-2.14;95.59;97586.88;1833791;78;21083;-57
2021/01/29 02:37:10;;;;;;;33.95;21.48;;;;;;;-2.20;95.58;97585.66;1800913;79;21315;-56
2021/01/29 02:40:04;;;;;;;34.95;21.02;;;;;;;-2.26;95.52;97587.88;1833759;78;21040;-57
2021/01/29 02:42:54;;;;;;;36.95;22.35;;;;;;;-2.32;95.49;97585.39;1833306;78;21524;-56
2021/01/29 02:45:51;;;;;;;35.20;21.57;;;;;;;-2.33;95.66;97586.25;1790606;79;21142;-56
2021/01/29 02:48:46;;;;;;;37.70;23.15;;;;;;;-2.32;95.77;97587.09;1831012;78;21452;-55
2021/01/29 02:51:52;;;;;;;34.43;21.45;;;;;;;-2.36;95.87;97581.61;1833743;78;21386;-55
2021/01/29 02:55:17;;;;;;;33.67;19.73;;;;;;;-2.34;96.02;97580.75;1851245;77;21960;-55
2021/01/29 02:58:01;;;;;;;34.45;21.52;;;;;;;-2.27;96.13;97582.77;1842327;77;21124;-56
2021/01/29 03:01:05;;;;;;;37.45;22.65;;;;;;;-2.22;96.31;97590.38;1793260;77;21132;-56
2021/01/29 03:03:44;;;;;;;35.15;21.52;;;;;;;-2.24;96.10;97588.69;1830212;78;21478;-57
2021/01/29 03:06:26;;;;;;;38.05;23.27;;;;;;;-2.27;96.16;97585.32;1802667;78;21294;-56
2021/01/29 03:09:23;;;;;;;40.33;23.57;;;;;;;-2.26;96.24;97589.58;1830419;78;21517;-56
2021/01/29 03:12:16;;;;;;;36.73;22.02;;;;;;;-2.24;96.32;97591.67;1830261;78;21408;-58
2021/01/29 03:15:24;;;;;;;36.85;21.77;;;;;;;-2.23;96.27;97607.34;1830204;78;21132;-57
2021/01/29 03:18:26;;;;;;;37.98;22.00;;;;;;;-2.27;96.16;97601.47;1830547;78;26407;-56
2021/01/29 03:21:15;;;;;;;37.93;21.80;;;;;;;-2.33;96.08;97603.23;1830387;78;23493;-56
2021/01/29 03:24:22;;;;;;;41.65;23.52;;;;;;;-2.39;95.93;97601.58;1830207;78;21100;-56
2021/01/29 03:27:15;;;;;;;39.58;22.85;;;;;;;-2.40;95.94;97606.69;1830484;78;21100;-55
2021/01/29 03:30:06;;;;;;;40.85;22.13;;;;;;;-2.42;95.77;97602.86;1814870;77;21972;-55
2021/01/29 03:32:56;;;;;;;32.78;19.07;;;;;;;-2.47;95.37;97593.61;1803307;79;21149;-57
2021/01/29 03:36:03;;;;;;;24.70;16.82;;;;;;;-2.52;94.19;97611.03;1797788;79;21365;-56
2021/01/29 03:39:00;;;;;;;30.25;18.27;;;;;;;-2.53;92.25;97605.96;1797686;79;21122;-56
2021/01/29 03:41:48;;;;;;;24.18;14.78;;;;;;;-2.52;91.72;97607.21;1797900;79;21130;-57
2021/01/29 03:44:54;;;;;;;20.60;13.88;;;;;;;-2.53;89.09;97609.78;1700447;84;21741;-55
2021/01/29 03:48:01;;;;;;;18.17;11.60;;;;;;;-2.58;88.40;97613.63;1700532;84;21105;-55
2021/01/29 03:51:02;;;;;;;16.23;10.40;;;;;;;-2.67;86.57;97611.60;1700472;84;23591;-57
2021/01/29 03:54:05;;;;;;;13.58;9.58;;;;;;;-2.81;85.80;97617.64;1700306;84;21144;-59
2021/01/29 03:57:00;;;;;;;14.85;8.40;;;;;;;-2.93;84.70;97619.03;1700350;84;21155;-56
2021/01/29 04:00:21;;;;;;;13.13;8.98;;;;;;;-3.04;83.94;97616.15;1700183;84;21175;-57
2021/01/29 04:03:19;;;;;;;14.45;9.63;;;;;;;-3.14;84.08;97622.58;1700100;84;21440;-56
2021/01/29 04:06:16;;;;;;;12.30;7.75;;;;;;;-3.26;84.14;97617.56;1700401;84;21332;-56
2021/01/29 04:09:15;;;;;;;12.20;9.33;;;;;;;-3.33;84.11;97617.61;1831330;76;27847;-57
2021/01/29 04:12:02;;;;;;;12.33;8.43;;;;;;;-3.42;84.10;97612.17;1818047;79;21882;-57
2021/01/29 04:14:38;;;;;;;13.05;8.35;;;;;;;-3.48;84.18;97620.66;1806913;79;21498;-57
2021/01/29 04:17:19;;;;;;;15.08;9.68;;;;;;;-3.55;84.11;97619.44;1817872;79;21569;-57
2021/01/29 04:19:47;;;;;;;15.10;9.70;;;;;;;-3.66;84.31;97621.62;1817880;79;21069;-55
2021/01/29 04:22:23;;;;;;;16.57;9.88;;;;;;;-3.77;84.46;97617.03;1818170;79;21581;-55
2021/01/29 04:25:02;;;;;;;16.32;9.38;;;;;;;-3.83;84.57;97627.21;1818222;79;21473;-57
2021/01/29 04:27:32;;;;;;;11.43;8.13;;;;;;;-3.91;84.53;97631.48;1817795;79;21474;-57
2021/01/29 04:30:09;;;;;;;12.58;8.23;;;;;;;-4.01;84.50;97626.00;1818128;79;21482;-56
2021/01/29 04:32:42;;;;;;;11.22;7.80;;;;;;;-4.10;84.63;97633.22;1818239;78;21093;-57
2021/01/29 04:35:13;;;;;;;12.03;8.08;;;;;;;-4.17;84.72;97634.52;1817737;79;21117;-57
2021/01/29 04:37:56;;;;;;;15.25;9.33;;;;;;;-4.25;84.89;97635.38;1787425;79;21049;-56
2021/01/29 04:40:31;;;;;;;13.10;7.53;;;;;;;-4.32;84.95;97638.77;1780057;79;21163;-57
2021/01/29 04:43:32;;;;;;;11.70;7.23;;;;;;;-4.39;84.99;97637.52;1780089;80;21544;-57
2021/01/29 04:46:23;;;;;;;12.73;8.55;;;;;;;-4.47;85.19;97635.00;1779550;80;21088;-56
2021/01/29 04:49:09;;;;;;;13.60;7.72;;;;;;;-4.54;85.41;97636.70;1779802;80;21191;-58
2021/01/29 04:52:24;;;;;;;14.53;8.97;;;;;;;-4.59;85.59;97637.58;1780140;80;21127;-56
2021/01/29 04:55:30;;;;;;;12.65;8.68;;;;;;;-4.64;85.67;97632.92;1779472;80;22356;-57
2021/01/29 04:58:13;;;;;;;17.77;10.25;;;;;;;-4.70;85.78;97640.53;1779702;80;21096;-56
2021/01/29 05:01:42;;;;;;;16.10;9.28;;;;;;;-4.78;85.93;97638.00;1714938;82;21070;-56
2021/01/29 05:05:11;;;;;;;16.30;9.88;;;;;;;-4.83;86.40;97638.44;1779839;80;21076;-55
2021/01/29 05:08:23;;;;;;;15.50;11.90;;;;;;;-4.80;87.11;97636.73;1831657;76;27873;-56
2021/01/29 05:11:31;;;;;;;16.30;11.38;;;;;;;-4.78;87.13;97638.84;1813307;79;21048;-57
2021/01/29 05:14:21;;;;;;;18.05;11.73;;;;;;;-4.70;87.35;97644.33;1818077;79;21187;-56
2021/01/29 05:17:22;;;;;;;17.52;11.38;;;;;;;-4.70;87.23;97646.86;1818229;79;21640;-57
2021/01/29 05:20:04;;;;;;;16.67;9.63;;;;;;;-4.77;87.18;97647.29;1818102;79;21110;-56
2021/01/29 05:22:40;;;;;;;17.98;11.03;;;;;;;-4.84;87.07;97655.73;1809167;79;21108;-57
2021/01/29 05:25:28;;;;;;;;;;;;;;;-4.92;87.04;97651.09;1820838;79;21077;-57
2021/01/29 05:28:24;;;;;;;21.68;12.53;;;;;;;-4.98;87.27;97658.72;1818111;79;21364;-57
2021/01/29 05:31:10;;;;;;;19.32;12.68;;;;;;;-5.06;87.33;97658.71;1818211;79;21544;-57
2021/01/29 05:34:02;;;;;;;20.70;12.60;;;;;;;-5.12;87.48;97654.47;1818473;78;21537;-57
2021/01/29 05:36:51;;;;;;;15.58;10.98;;;;;;;-5.17;87.61;97647.28;1818056;78;21164;-56
2021/01/29 05:39:54;;;;;;;18.35;11.18;;;;;;;-5.23;87.73;97657.83;1792104;79;21596;-57
2021/01/29 05:43:05;;;;;;;31.62;15.88;;;;;;;-5.30;87.88;97655.27;1817044;79;21381;-55
2021/01/29 05:46:04;;;;;;;21.27;13.22;;;;;;;-5.34;88.01;97658.66;1818024;79;21534;-56
2021/01/29 05:49:14;;;;;;;18.52;11.63;;;;;;;-5.38;88.40;97656.11;1818053;79;21592;-56
2021/01/29 05:52:20;;;;;;;18.62;11.95;;;;;;;-5.37;88.73;97662.44;1817965;78;21123;-57
2021/01/29 05:55:02;;;;;;;16.15;10.35;;;;;;;-5.35;88.95;97659.50;1785686;79;21553;-56
2021/01/29 05:57:58;;;;;;;17.70;11.22;;;;;;;-5.35;88.91;97667.10;1818109;79;21193;-56
2021/01/29 06:00:50;;;;;;;;;;;;;;;-5.37;89.03;97668.77;1820588;79;21478;-55
2021/01/29 06:03:35;;;;;;;17.75;10.75;;;;;;;-5.39;89.04;97668.34;1818057;79;20488;-55
2021/01/29 06:06:44;;;;;;;18.07;11.50;;;;;;;-5.43;89.35;97663.71;1812262;77;21140;-56
2021/01/29 06:09:48;;;;;;;17.32;10.90;;;;;;;-5.42;89.78;97661.60;1801344;77;21183;-58
2021/01/29 06:13:04;;;;;;;16.82;10.78;;;;;;;-5.42;89.97;97660.75;1817996;77;21359;-57
2021/01/29 06:16:12;;;;;;;22.77;12.75;;;;;;;-5.42;90.23;97660.75;1794797;78;21172;-57
2021/01/29 06:19:28;;;;;;;19.07;12.65;;;;;;;-5.39;90.31;97665.81;1795695;79;21192;-59
2021/01/29 06:22:32;;;;;;;19.05;12.23;;;;;;;-5.38;90.24;97664.55;1808720;79;21620;-58
2021/01/29 06:25:27;;;;;;;19.35;12.53;;;;;;;-5.41;89.74;97665.81;1802315;78;21566;-57
2021/01/29 06:28:17;;;;;;;18.95;11.53;;;;;;;-5.50;89.30;97663.27;1802817;77;21217;-57
2021/01/29 06:31:40;;;;;;;20.35;12.07;;;;;;;-5.55;89.09;97666.63;1784237;80;21557;-57
2021/01/29 06:34:29;;;;;;;19.02;10.90;;;;;;;-5.53;89.20;97668.30;1753791;80;21167;-55
2021/01/29 06:37:22;;;;;;;17.80;11.60;;;;;;;-5.39;89.38;97668.34;1784162;80;21049;-56
2021/01/29 06:40:16;;;;;;;16.67;10.53;;;;;;;-5.26;89.41;97665.43;1787677;79;22108;-57
2021/01/29 06:43:25;;;;;;;16.50;9.73;;;;;;;-5.12;89.23;97657.01;1800414;79;21581;-58
2021/01/29 06:46:22;;;;;;;19.70;11.48;;;;;;;-4.99;88.93;97661.64;1789846;80;21154;-57
2021/01/29 06:49:32;;;;;;;16.20;10.50;;;;;;;-4.90;88.95;97664.20;1775942;80;21210;-57
2021/01/29 06:52:20;;;;;;;25.35;12.98;;;;;;;-4.75;88.97;97665.47;1788236;80;21239;-57
2021/01/29 06:55:50;;;;;;;24.98;12.73;;;;;;;-4.52;89.02;97659.55;1845140;75;29049;-57
2021/01/29 06:58:49;;;;;;;18.07;11.60;;;;;;;-4.39;88.92;97661.19;1816349;79;21180;-56
2021/01/29 07:02:01;;;;;;;17.87;10.72;;;;;;;-4.23;88.44;97655.70;1817910;79;21446;-56
2021/01/29 07:04:49;;;;;;;18.70;11.55;;;;;;;-4.08;87.98;97650.97;1817172;79;21152;-57
2021/01/29 07:07:56;;;;;;;26.75;13.35;;;;;;;-3.95;87.41;97652.63;1774479;77;21171;-59
2021/01/29 07:10:43;;;;;;;22.02;11.22;;;;;;;-3.85;86.92;97645.42;1820493;78;21128;-58
2021/01/29 07:13:38;;;;;;;;;;;;;;;-3.74;86.50;97641.13;1822866;78;21706;-60
2021/01/29 07:16:46;;;;;;;17.85;8.93;;;;;;;-3.65;86.07;97633.46;1742411;81;21348;-58
2021/01/29 07:19:48;;;;;;;19.50;10.08;;;;;;;-3.59;85.23;97621.16;1763330;81;21550;-58
2021/01/29 07:23:00;;;;;;;15.35;9.05;;;;;;;-3.47;85.05;97620.27;1741418;82;21689;-57
2021/01/29 07:26:08;;;;;;;19.52;10.68;;;;;;;-3.37;84.68;97621.89;1769318;79;21112;-56
2021/01/29 07:29:02;;;;;;;22.22;10.93;;;;;;;-3.29;84.14;97617.59;1735933;81;21588;-57
2021/01/29 07:31:47;;;;;;;18.02;9.75;;;;;;;-3.23;83.93;97624.34;1782549;79;21189;-57
2021/01/29 07:34:49;;;;;;;13.75;8.93;;;;;;;-3.18;83.53;97625.98;1799602;79;21652;-57
2021/01/29 07:37:43;;;;;;;15.10;9.40;;;;;;;-3.14;83.44;97624.27;1712785;83;21151;-57
2021/01/29 07:40:20;;;;;;;18.05;10.45;;;;;;;-3.08;83.17;97626.78;1628157;86;21604;-57
2021/01/29 07:43:14;;;;;;;15.45;9.25;;;;;;;-3.03;82.93;97625.02;1644273;86;21214;-57
2021/01/29 07:45:48;;;;;;;15.48;9.75;;;;;;;-2.97;82.98;97617.79;1715288;83;21209;-57
2021/01/29 07:48:57;;;;;;;15.80;8.68;;;;;;;-2.93;82.41;97615.66;1716978;83;21215;-57
2021/01/29 07:52:06;;;;;;;15.53;9.20;;;;;;;-2.87;82.14;97617.72;1710945;83;21198;-57
2021/01/29 07:54:50;;;;;;;17.55;9.13;;;;;;;-2.83;81.68;97610.89;1656895;86;21270;-57
2021/01/29 07:57:46;;;;;;;14.35;9.25;;;;;;;-2.80;81.40;97609.19;1718886;81;21182;-57
2021/01/29 08:01:00;;;;;;;18.07;9.50;;;;;;;-2.74;81.00;97613.36;1868610;75;28270;-57
2021/01/29 08:03:51;;;;;;;23.55;12.53;;;;;;;-2.75;80.73;97616.76;1850940;77;21164;-56
2021/01/29 08:06:44;;;;;;;16.95;9.80;;;;;;;-2.67;80.79;97613.72;1859148;77;21613;-59
2021/01/29 08:09:23;;;;;;;33.13;14.60;;;;;;;-2.62;80.21;97611.14;1839761;77;21175;-57
2021/01/29 08:11:57;;;;;;;27.62;13.58;;;;;;;-2.63;79.73;97619.20;1854198;77;21052;-57
2021/01/29 08:15:06;;;;;;;22.58;11.53;;;;;;;-2.62;80.14;97609.44;1827056;78;21565;-57
2021/01/29 08:18:31;;;;;;;13.78;9.08;;;;;;;-2.57;79.86;97615.34;1827176;77;21208;-58
2021/01/29 08:21:36;;;;;;;14.68;9.60;;;;;;;-2.58;79.76;97621.25;1840686;77;21378;-57
2021/01/29 08:24:40;;;;;;;11.97;7.72;;;;;;;-2.52;79.88;97611.03;1846285;77;21119;-57
2021/01/29 08:27:52;;;;;;;15.90;10.63;;;;;;;-2.43;79.76;97609.25;1805834;77;21152;-59
2021/01/29 08:31:06;;;;;;;15.03;9.05;;;;;;;-2.35;79.83;97616.37;1788203;80;21175;-57
2021/01/29 08:34:16;;;;;;;16.00;10.45;;;;;;;-2.33;79.60;97617.22;1789522;79;21605;-57
2021/01/29 08:37:14;;;;;;;14.18;9.60;;;;;;;-2.32;79.71;97613.38;1794705;79;21190;-57
2021/01/29 08:40:13;;;;;;;12.20;8.43;;;;;;;-2.26;79.65;97613.76;1759461;80;21201;-55
2021/01/29 08:43:08;;;;;;;10.45;7.47;;;;;;;-2.19;79.61;97621.74;1758939;80;21559;-57
2021/01/29 08:46:04;;;;;;;13.58;8.48;;;;;;;-2.13;79.09;97620.38;1761136;80;21120;-57
2021/01/29 08:49:06;;;;;;;12.98;9.00;;;;;;;-2.09;79.00;97616.95;1791891;78;21621;-58
2021/01/29 08:51:47;;;;;;;12.82;8.75;;;;;;;-2.04;79.22;97617.75;1790781;78;21436;-59
2021/01/29 08:54:48;;;;;;;12.18;8.23;;;;;;;-1.96;79.11;97615.95;1787382;78;21237;-57
2021/01/29 08:57:34;;;;;;;12.18;7.80;;;;;;;-1.92;78.92;97609.55;1794156;79;21172;-56
2021/01/29 09:00:03;;;;;;;13.47;8.00;;;;;;;-1.89;79.01;97604.40;1793008;79;21248;-57
2021/01/29 09:02:58;;;;;;;10.95;8.20;;;;;;;-1.86;79.08;97608.20;1790223;79;21184;-58
2021/01/29 09:05:28;;;;;;;12.40;8.20;;;;;;;-1.84;79.20;97606.47;1751009;79;21376;-55
2021/01/29 09:08:01;;;;;;;10.23;7.33;;;;;;;-1.82;78.90;97609.83;1784779;79;21460;-55
2021/01/29 09:11:15;;;;;;;11.75;8.33;;;;;;;-1.80;78.88;97610.68;1773291;79;21195;-56
2021/01/29 09:13:44;;;;;;;10.95;8.48;;;;;;;-1.82;79.13;97610.67;1785004;79;21629;-55
2021/01/29 09:16:20;;;;;;;13.15;9.60;;;;;;;-1.83;79.04;97613.25;1770127;81;21680;-56
2021/01/29 09:19:14;;;;;;;14.28;8.30;;;;;;;-1.84;79.05;97611.13;1740209;80;21526;-56
2021/01/29 09:22:00;;;;;;;11.88;8.68;;;;;;;-1.81;79.15;97609.84;1753465;81;21135;-56
2021/01/29 09:25:02;;;;;;;14.50;9.30;;;;;;;-1.80;79.33;97606.86;1768173;81;21684;-57
2021/01/29 09:27:53;;;;;;;14.53;10.72;;;;;;;-1.83;79.21;97600.52;1739045;82;21643;-58
2021/01/29 09:30:32;;;;;;;19.65;12.63;;;;;;;-1.88;79.62;97613.75;1789405;79;21180;-55
2021/01/29 09:33:23;;;;;;;15.08;9.43;;;;;;;-1.87;79.81;97602.70;1756046;79;21343;-56
2021/01/29 09:36:14;;;;;;;12.28;9.30;;;;;;;-1.81;79.78;97607.73;1790151;79;21183;-55
2021/01/29 09:39:22;;;;;;;13.03;8.20;;;;;;;-1.76;79.60;97606.78;1738616;81;21669;-56
2021/01/29 09:42:00;;;;;;;10.68;7.65;;;;;;;-1.73;79.27;97599.13;1770210;81;21189;-55
2021/01/29 09:44:40;;;;;;;11.88;8.73;;;;;;;-1.70;78.92;97600.34;1779214;79;21176;-56
2021/01/29 09:47:11;;;;;;;14.00;9.35;;;;;;;-1.67;78.85;97598.17;1747953;81;22086;-56
2021/01/29 09:49:41;;;;;;;13.28;9.58;;;;;;;-1.60;79.18;97592.14;1758413;80;21089;-57
2021/01/29 09:52:49;;;;;;;15.08;9.73;;;;;;;-1.49;78.91;97589.45;1756137;80;21117;-57
2021/01/29 09:55:19;;;;;;;;;;;;;;;-1.44;78.33;97588.51;1763750;80;21133;-56
2021/01/29 09:57:55;;;;;;;15.30;10.10;;;;;;;-1.44;78.33;97588.51;1783176;80;20299;-56
2021/01/29 10:00:32;;;;;;;17.27;10.72;;;;;;;-1.41;78.26;97584.66;1760698;80;21212;-55
2021/01/29 10:03:25;;;;;;;14.95;10.65;;;;;;;-1.38;78.20;97585.03;1753542;80;21577;-55
2021/01/29 10:06:07;;;;;;;15.70;10.88;;;;;;;-1.30;78.04;97587.47;1767828;79;21140;-57
2021/01/29 10:08:43;;;;;;;14.85;11.65;;;;;;;-1.28;77.81;97578.96;1779653;79;21905;-58
2021/01/29 10:11:35;;;;;;;15.63;11.38;;;;;;;-1.28;77.78;97576.41;1737263;81;21184;-57
2021/01/29 10:14:24;;;;;;;16.60;12.00;;;;;;;-1.28;77.89;97570.47;1770951;79;21394;-57
2021/01/29 10:16:56;;;;;;;21.10;13.35;;;;;;;-1.21;78.06;97572.91;1768426;78;21046;-57
2021/01/29 10:19:57;;;;;;;16.40;11.35;;;;;;;-1.13;77.74;97576.17;1802189;79;21110;-57
2021/01/29 10:22:56;;;;;;;19.15;12.98;;;;;;;-1.08;77.51;97572.70;1763477;80;21181;-57
2021/01/29 10:25:50;;;;;;;15.58;11.25;;;;;;;-1.11;77.81;97568.49;1784972;79;21169;-57
2021/01/29 10:29:05;;;;;;;17.17;11.83;;;;;;;-1.17;77.81;97569.42;1770002;81;21215;-58
2021/01/29 10:31:54;;;;;;;16.95;11.55;;;;;;;-1.20;78.26;97572.47;1769274;79;21547;-57
2021/01/29 10:34:48;;;;;;;19.40;12.07;;;;;;;-1.22;78.33;97573.74;1789352;79;21161;-58
2021/01/29 10:37:44;;;;;;;16.87;11.45;;;;;;;-1.26;78.33;97567.45;1756698;80;21216;-58
2021/01/29 10:40:26;;;;;;;17.50;11.05;;;;;;;-1.29;78.37;97567.05;1751734;80;21641;-57
2021/01/29 10:43:12;;;;;;;17.87;11.60;;;;;;;-1.28;78.69;97559.84;1751154;82;22802;-57
2021/01/29 10:46:09;;;;;;;17.52;12.43;;;;;;;-1.27;78.46;97567.05;1766077;80;21188;-57
2021/01/29 10:49:21;;;;;;;17.30;11.50;;;;;;;-1.23;78.49;97571.22;1751021;80;21180;-57
2021/01/29 10:51:58;;;;;;;14.63;10.05;;;;;;;-1.20;78.29;97576.30;1771864;80;21621;-57
2021/01/29 10:54:39;;;;;;;15.78;11.45;;;;;;;-1.20;78.19;97573.74;1757960;80;22209;-59
2021/01/29 10:57:40;;;;;;;17.45;11.00;;;;;;;-1.22;78.08;97572.90;1751813;80;21261;-59
2021/01/29 11:00:21;;;;;;;13.30;9.98;;;;;;;-1.23;78.33;97568.67;1789457;78;21192;-60
2021/01/29 11:03:14;;;;;;;16.60;10.60;;;;;;;-1.24;78.01;97575.48;1758911;79;22189;-59
2021/01/29 11:05:50;;;;;;;16.65;10.68;;;;;;;-1.27;78.50;97578.09;1739502;80;21181;-60
2021/01/29 11:08:34;;;;;;;14.75;10.53;;;;;;;-1.26;78.18;97575.11;1717156;82;21161;-60
2021/01/29 11:11:22;;;;;;;20.48;12.23;;;;;;;-1.24;78.56;97579.30;1737063;81;21460;-59
2021/01/29 11:14:13;;;;;;;26.48;15.80;;;;;;;-1.20;78.33;97572.03;1710259;82;21129;-59
2021/01/29 11:17:16;;;;;;;18.92;12.35;;;;;;;-1.16;78.51;97566.00;1714404;81;22186;-59
2021/01/29 11:19:47;;;;;;;21.60;14.33;;;;;;;-1.10;78.13;97566.78;1745275;80;21204;-59
2021/01/29 11:23:02;;;;;;;17.48;11.55;;;;;;;-1.06;78.48;97577.33;1708270;84;21149;-60
2021/01/29 11:25:55;;;;;;;29.67;16.93;;;;;;;-0.93;78.15;97566.91;1749577;80;21284;-61
2021/01/29 11:28:47;;;;;;;128.47;57.33;;;;;;;-0.85;77.18;97570.17;1732306;80;21375;-61
2021/01/29 11:31:39;;;;;;;30.05;17.80;;;;;;;-0.82;77.46;97564.63;1749935;81;21194;-60
2021/01/29 11:34:14;;;;;;;27.67;16.35;;;;;;;-0.72;76.96;97561.88;1746253;80;21211;-59
2021/01/29 11:37:06;;;;;;;18.98;11.95;;;;;;;-0.64;76.81;97581.73;1753366;81;21160;-60
2021/01/29 11:39:45;;;;;;;12.90;9.60;;;;;;;-0.66;76.18;97574.98;1750660;81;22043;-60
2021/01/29 11:42:25;;;;;;;12.90;9.98;;;;;;;-0.69;76.45;97589.05;1753101;81;21171;-61
2021/01/29 11:45:21;;;;;;;17.02;11.00;;;;;;;-0.67;76.59;97582.23;1745719;81;21121;-60
2021/01/29 11:48:01;;;;;;;14.47;10.65;;;;;;;-0.64;76.63;97591.09;1741492;81;21550;-60
2021/01/29 11:50:55;;;;;;;15.53;10.80;;;;;;;-0.58;76.89;97593.55;1733095;82;21054;-60
2021/01/29 11:53:58;;;;;;;12.78;9.80;;;;;;;-0.52;76.58;97588.78;1732141;82;21548;-60
2021/01/29 11:56:49;;;;;;;11.60;8.60;;;;;;;-0.51;76.34;97589.18;1664902;85;21248;-60
2021/01/29 11:59:46;;;;;;;13.60;10.15;;;;;;;-0.47;76.43;97592.91;1709393;82;21183;-61
2021/01/29 12:02:28;;;;;;;13.15;10.48;;;;;;;-0.43;76.23;97595.83;1693982;84;21585;-61
2021/01/29 12:05:26;;;;;;;14.33;9.48;;;;;;;-0.39;76.41;97602.55;1692872;83;21252;-61
2021/01/29 12:08:35;;;;;;;15.88;10.30;;;;;;;-0.34;75.56;97593.54;1732658;81;21401;-61
2021/01/29 12:11:34;;;;;;;12.07;8.95;;;;;;;-0.29;76.04;97593.87;1724599;81;21168;-61
2021/01/29 12:14:36;;;;;;;15.32;9.65;;;;;;;-0.20;75.20;97597.12;1695263;81;21139;-61
2021/01/29 12:17:06;;;;;;;14.40;9.48;;;;;;;-0.18;75.33;97594.93;1726777;81;21128;-61
2021/01/29 12:19:38;;;;;;;15.18;10.65;;;;;;;-0.18;74.90;97600.04;1736948;82;21132;-62
2021/01/29 12:22:48;;;;;;;13.83;9.38;;;;;;;-0.25;75.16;97606.56;1736713;82;21411;-62
2021/01/29 12:25:39;;;;;;;14.53;10.10;;;;;;;-0.27;75.36;97602.77;1827260;76;28677;-59
2021/01/29 12:28:22;;;;;;;12.40;9.28;;;;;;;-0.34;75.69;97601.20;1812120;77;21222;-59
2021/01/29 12:31:20;;;;;;;16.02;10.72;;;;;;;-0.31;75.76;97609.63;1801316;77;22388;-60
2021/01/29 12:34:06;;;;;;;12.80;9.30;;;;;;;-0.30;75.89;97616.45;1814552;79;21633;-60
2021/01/29 12:36:37;;;;;;;11.22;8.30;;;;;;;-0.29;75.72;97621.11;1801509;78;21171;-60
2021/01/29 12:39:25;;;;;;;11.08;8.60;;;;;;;-0.37;75.57;97623.80;1801840;77;21621;-59
2021/01/29 12:41:58;;;;;;;12.10;8.60;;;;;;;-0.44;75.81;97622.66;1809804;77;21144;-59
2021/01/29 12:44:44;;;;;;;11.70;9.45;;;;;;;-0.52;75.95;97637.27;1814786;79;21371;-58
2021/01/29 12:47:28;;;;;;;12.45;9.75;;;;;;;-0.59;76.43;97636.53;1803235;77;20993;-58
2021/01/29 12:50:18;;;;;;;15.85;10.03;;;;;;;-0.59;76.90;97641.63;1812787;79;21172;-60
2021/01/29 12:52:59;;;;;;;13.80;9.45;;;;;;;-0.55;76.90;97636.87;1774396;79;21081;-59
2021/01/29 12:55:37;;;;;;;9.98;8.00;;;;;;;-0.56;76.72;97635.19;1800721;78;21163;-63
2021/01/29 12:58:11;;;;;;;11.20;8.35;;;;;;;-0.59;76.49;97643.75;1784606;80;21188;-59
2021/01/29 13:00:41;;;;;;;11.03;7.72;;;;;;;-0.64;76.16;97637.87;1784998;80;21128;-58
2021/01/29 13:03:43;;;;;;;9.35;7.65;;;;;;;-0.76;76.19;97646.98;1785274;79;21152;-58